createdAt,value
2018-08-17T00:00:08.792Z,48.00
2018-08-17T00:02:36.744Z,48.00
2018-08-17T00:05:04.688Z,48.00
2018-08-17T00:07:32.627Z,48.10
2018-08-17T00:10:00.650Z,48.10
2018-08-17T00:12:29.705Z,48.20
2018-08-17T00:14:57.618Z,48.30
2018-08-17T00:17:25.579Z,48.20
2018-08-17T00:19:53.521Z,48.10
2018-08-17T00:22:21.450Z,48.10
2018-08-17T00:24:49.408Z,48.20
2018-08-17T00:27:17.359Z,48.30
2018-08-17T00:29:45.342Z,48.30
2018-08-17T00:32:13.285Z,48.30
2018-08-17T00:34:41.240Z,48.30
2018-08-17T00:37:09.191Z,49.00
2018-08-17T00:39:37.129Z,48.30
2018-08-17T00:42:05.418Z,49.00
2018-08-17T00:44:33.366Z,48.40
2018-08-17T00:47:01.316Z,48.30
2018-08-17T00:49:29.350Z,48.50
2018-08-17T00:51:57.294Z,48.30
2018-08-17T00:54:25.257Z,48.40
2018-08-17T00:56:53.436Z,48.30
2018-08-17T00:59:21.442Z,48.30
2018-08-17T01:01:49.384Z,48.40
2018-08-17T01:04:17.577Z,48.50
2018-08-17T01:06:45.514Z,48.60
2018-08-17T01:09:13.462Z,48.50
2018-08-17T01:11:41.427Z,48.50
2018-08-17T01:14:09.393Z,48.50
2018-08-17T01:16:37.327Z,48.40
2018-08-17T01:19:05.301Z,48.50
2018-08-17T01:21:33.236Z,48.60
2018-08-17T01:24:01.391Z,48.60
2018-08-17T01:26:29.344Z,48.70
2018-08-17T01:28:57.275Z,48.80
2018-08-17T01:31:25.213Z,49.00
2018-08-17T01:33:53.309Z,49.20
2018-08-17T01:36:22.067Z,49.20
2018-08-17T01:38:50.014Z,49.10
2018-08-17T01:41:17.971Z,49.20
2018-08-17T01:43:45.899Z,49.20
2018-08-17T01:46:13.896Z,49.20
2018-08-17T01:48:41.841Z,49.30
2018-08-17T01:51:09.772Z,49.30
2018-08-17T01:53:37.869Z,49.20
2018-08-17T01:56:05.800Z,49.30
2018-08-17T01:58:40.652Z,49.40
2018-08-17T02:01:08.836Z,49.30
2018-08-17T02:03:36.775Z,49.40
2018-08-17T02:06:04.878Z,49.40
2018-08-17T02:08:33.143Z,49.40
2018-08-17T02:11:01.109Z,49.50
2018-08-17T02:13:29.052Z,49.50
2018-08-17T02:15:57.370Z,49.70
2018-08-17T02:18:25.312Z,49.80
2018-08-17T02:20:53.246Z,49.80
2018-08-17T02:23:21.191Z,49.80
2018-08-17T02:25:49.141Z,49.90
2018-08-17T02:28:17.215Z,49.80
2018-08-17T02:30:45.182Z,49.80
2018-08-17T02:33:13.460Z,49.80
2018-08-17T02:35:41.438Z,49.90
2018-08-17T02:38:09.399Z,49.90
2018-08-17T02:40:37.436Z,49.80
2018-08-17T02:43:05.396Z,49.80
2018-08-17T02:45:33.346Z,49.80
2018-08-17T02:48:01.315Z,50.00
2018-08-17T02:50:29.288Z,50.00
2018-08-17T02:52:57.633Z,50.00
2018-08-17T02:55:25.589Z,50.90
2018-08-17T02:57:53.528Z,50.10
2018-08-17T03:00:21.473Z,50.10
2018-08-17T03:02:49.420Z,50.20
2018-08-17T03:05:17.408Z,50.30
2018-08-17T03:07:45.373Z,50.30
2018-08-17T03:10:13.297Z,50.40
2018-08-17T03:12:41.281Z,50.60
2018-08-17T03:15:09.242Z,50.70
2018-08-17T03:17:37.194Z,50.60
2018-08-17T03:20:05.736Z,50.60
2018-08-17T03:22:33.750Z,50.60
2018-08-17T03:25:01.744Z,51.40
2018-08-17T03:27:29.772Z,50.90
2018-08-17T03:29:57.723Z,50.90
2018-08-17T03:32:25.669Z,51.10
2018-08-17T03:34:53.606Z,51.20
2018-08-17T03:37:21.646Z,51.10
2018-08-17T03:39:49.503Z,51.00
2018-08-17T03:42:17.430Z,51.10
2018-08-17T03:44:45.715Z,51.10
2018-08-17T03:47:13.749Z,51.20
2018-08-17T03:49:41.712Z,51.40
2018-08-17T03:52:09.675Z,51.50
2018-08-17T03:54:37.633Z,51.50
2018-08-17T03:57:05.580Z,51.50
2018-08-17T03:59:33.537Z,51.60
2018-08-17T04:02:01.506Z,51.50
2018-08-17T04:04:29.469Z,51.40
2018-08-17T04:06:57.811Z,51.60
2018-08-17T04:09:25.886Z,52.30
2018-08-17T04:11:54.417Z,51.70
2018-08-17T04:14:22.398Z,51.80
2018-08-17T04:16:50.718Z,51.90
2018-08-17T04:19:18.684Z,51.90
2018-08-17T04:21:46.628Z,51.80
2018-08-17T04:24:14.973Z,51.90
2018-08-17T04:26:42.928Z,52.00
2018-08-17T04:29:10.945Z,52.10
2018-08-17T04:31:38.917Z,52.20
2018-08-17T04:34:06.872Z,52.20
2018-08-17T04:36:34.827Z,52.30
2018-08-17T04:39:02.828Z,51.60
2018-08-17T04:41:30.828Z,52.40
2018-08-17T04:43:58.811Z,52.40
2018-08-17T04:46:26.784Z,52.60
2018-08-17T04:48:54.795Z,52.60
2018-08-17T04:51:22.813Z,52.60
2018-08-17T04:53:50.754Z,52.30
2018-08-17T04:56:18.710Z,52.80
2018-08-17T04:58:46.951Z,52.80
2018-08-17T05:01:14.903Z,53.60
2018-08-17T05:03:42.855Z,52.90
2018-08-17T05:06:10.892Z,53.00
2018-08-17T05:08:38.883Z,53.10
2018-08-17T05:11:06.977Z,53.00
2018-08-17T05:13:34.908Z,53.00
2018-08-17T05:16:02.868Z,53.00
2018-08-17T05:18:30.824Z,53.10
2018-08-17T05:20:58.774Z,53.10
2018-08-17T05:23:26.839Z,53.00
2018-08-17T05:25:54.684Z,53.00
2018-08-17T05:28:22.626Z,53.00
2018-08-17T05:30:50.642Z,53.00
2018-08-17T05:33:18.588Z,53.10
2018-08-17T05:35:46.531Z,53.10
2018-08-17T05:38:14.527Z,53.10
2018-08-17T05:40:42.478Z,53.10
2018-08-17T05:43:10.433Z,53.10
2018-08-17T05:45:38.405Z,53.10
2018-08-17T05:48:06.347Z,53.00
2018-08-17T05:50:34.936Z,53.10
2018-08-17T05:53:03.712Z,53.00
2018-08-17T05:55:31.665Z,52.90
2018-08-17T05:57:59.706Z,53.00
2018-08-17T06:00:27.666Z,52.90
2018-08-17T06:02:55.683Z,52.90
2018-08-17T06:05:24.662Z,52.90
2018-08-17T06:07:52.603Z,53.00
2018-08-17T06:10:20.561Z,52.90
2018-08-17T06:12:48.548Z,53.00
2018-08-17T06:15:16.514Z,52.90
2018-08-17T06:17:44.454Z,52.90
2018-08-17T06:20:12.444Z,52.90
2018-08-17T06:22:40.453Z,52.90
2018-08-17T06:25:10.317Z,53.00
2018-08-17T06:27:38.459Z,52.90
2018-08-17T06:30:08.912Z,52.80
2018-08-17T06:32:37.086Z,52.80
2018-08-17T06:35:05.463Z,52.70
2018-08-17T06:37:33.398Z,52.70
2018-08-17T06:40:01.456Z,52.70
2018-08-17T06:42:29.871Z,52.50
2018-08-17T06:44:57.870Z,52.50
2018-08-17T06:47:25.816Z,52.50
2018-08-17T06:49:53.772Z,52.60
2018-08-17T06:52:21.729Z,52.60
2018-08-17T06:54:49.769Z,52.50
2018-08-17T06:57:17.878Z,52.50
2018-08-17T06:59:45.713Z,52.60
2018-08-17T07:02:13.717Z,52.50
2018-08-17T07:04:41.745Z,52.60
2018-08-17T07:07:09.751Z,52.70
2018-08-17T07:09:37.885Z,52.60
2018-08-17T07:12:05.867Z,52.50
2018-08-17T07:14:33.799Z,52.50
2018-08-17T07:17:01.763Z,52.50
2018-08-17T07:19:29.766Z,52.60
2018-08-17T07:21:57.724Z,52.40
2018-08-17T07:24:25.719Z,52.50
2018-08-17T07:26:53.696Z,52.40
2018-08-17T07:29:21.638Z,52.30
2018-08-17T07:31:49.645Z,52.20
2018-08-17T07:34:17.601Z,52.40
2018-08-17T07:36:45.551Z,52.10
2018-08-17T07:39:13.485Z,52.10
2018-08-17T07:41:41.831Z,52.10
2018-08-17T07:44:09.771Z,52.00
2018-08-17T07:46:37.752Z,51.90
2018-08-17T07:49:05.705Z,51.90
2018-08-17T07:51:33.706Z,52.00
2018-08-17T07:54:01.654Z,51.80
2018-08-17T07:56:29.617Z,51.80
2018-08-17T07:58:57.565Z,51.90
2018-08-17T08:01:25.529Z,51.80
2018-08-17T08:03:53.560Z,51.30
2018-08-17T08:06:21.613Z,51.40
2018-08-17T08:08:49.566Z,51.40
2018-08-17T08:11:17.519Z,51.30
2018-08-17T08:13:45.846Z,51.20
2018-08-17T08:16:13.793Z,51.20
2018-08-17T08:18:41.779Z,51.50
2018-08-17T08:21:09.732Z,51.70
2018-08-17T08:23:37.672Z,51.30
2018-08-17T08:26:05.649Z,51.20
2018-08-17T08:28:33.593Z,51.70
2018-08-17T08:31:01.557Z,51.00
2018-08-17T08:33:29.840Z,51.00
2018-08-17T08:35:57.796Z,50.90
2018-08-17T08:38:25.850Z,50.80
2018-08-17T08:40:54.035Z,50.50
2018-08-17T08:43:21.988Z,50.30
2018-08-17T08:45:49.975Z,50.30
2018-08-17T08:48:17.938Z,50.10
2018-08-17T08:50:45.993Z,50.20
2018-08-17T08:53:13.991Z,50.00
2018-08-17T08:55:42.958Z,49.70
2018-08-17T08:58:11.011Z,49.60
2018-08-17T09:00:38.984Z,49.40
2018-08-17T09:03:07.094Z,48.80
2018-08-17T09:05:35.022Z,48.80
2018-08-17T09:08:02.991Z,48.50
2018-08-17T09:10:30.984Z,48.50
2018-08-17T09:12:58.943Z,49.50
2018-08-17T09:15:26.918Z,48.70
2018-08-17T09:17:54.866Z,48.90
2018-08-17T09:20:22.980Z,48.50
2018-08-17T09:22:50.835Z,48.20
2018-08-17T09:25:18.806Z,47.90
2018-08-17T09:27:46.745Z,47.80
2018-08-17T09:30:15.410Z,47.60
2018-08-17T09:32:43.335Z,47.40
2018-08-17T09:35:12.876Z,48.10
2018-08-17T09:37:40.883Z,47.80
2018-08-17T09:40:09.732Z,47.80
2018-08-17T09:42:37.730Z,47.90
2018-08-17T09:45:07.425Z,48.00
2018-08-17T09:47:35.381Z,48.30
2018-08-17T09:50:03.667Z,47.60
2018-08-17T09:52:31.667Z,47.20
2018-08-17T09:54:59.615Z,47.10
2018-08-17T09:57:27.619Z,47.10
2018-08-17T09:59:55.601Z,47.40
2018-08-17T10:02:29.720Z,47.40
2018-08-17T10:07:05.711Z,47.30
2018-08-17T10:09:37.924Z,47.00
2018-08-17T10:12:05.875Z,47.00
2018-08-17T10:14:33.900Z,47.10
2018-08-17T10:17:01.969Z,46.70
2018-08-17T10:19:29.904Z,46.70
2018-08-17T10:21:58.012Z,46.60
2018-08-17T10:24:25.812Z,46.70
2018-08-17T10:26:54.704Z,46.50
2018-08-17T10:29:23.094Z,46.00
2018-08-17T10:31:51.089Z,46.10
2018-08-17T10:34:19.335Z,45.90
2018-08-17T10:36:47.325Z,44.80
2018-08-17T10:39:15.828Z,45.20
2018-08-17T10:41:43.817Z,45.30
2018-08-17T10:44:12.331Z,45.10
2018-08-17T10:46:40.517Z,45.20
2018-08-17T10:49:09.127Z,45.20
2018-08-17T10:51:37.054Z,45.10
2018-08-17T10:54:05.087Z,45.00
2018-08-17T10:56:33.064Z,44.70
2018-08-17T10:59:01.051Z,44.20
2018-08-17T11:01:29.226Z,43.90
2018-08-17T11:03:57.219Z,44.00
2018-08-17T11:06:25.149Z,43.90
2018-08-17T11:08:53.085Z,44.00
2018-08-17T11:11:21.098Z,44.00
2018-08-17T11:13:49.048Z,43.70
2018-08-17T11:16:16.996Z,43.90
2018-08-17T11:18:44.940Z,44.00
2018-08-17T11:21:12.976Z,44.00
2018-08-17T11:23:40.928Z,44.20
2018-08-17T11:26:08.887Z,43.90
2018-08-17T11:28:37.163Z,44.20
2018-08-17T11:31:05.103Z,44.20
2018-08-17T11:33:33.116Z,43.40
2018-08-17T11:36:01.068Z,43.20
2018-08-17T11:38:35.844Z,42.80
2018-08-17T11:41:03.792Z,42.90
2018-08-17T11:43:31.751Z,42.90
2018-08-17T11:46:00.320Z,43.10
2018-08-17T11:48:36.262Z,42.80
2018-08-17T11:51:04.263Z,43.20
2018-08-17T11:53:33.130Z,42.70
2018-08-17T11:56:01.289Z,42.80
2018-08-17T11:58:29.312Z,42.30
2018-08-17T12:00:57.292Z,42.10
2018-08-17T12:03:25.209Z,41.80
2018-08-17T12:05:53.198Z,41.60
2018-08-17T12:08:21.239Z,41.70
2018-08-17T12:10:53.573Z,41.70
2018-08-17T12:13:21.614Z,41.60
2018-08-17T12:15:56.208Z,42.20
2018-08-17T12:18:24.225Z,42.00
2018-08-17T12:20:52.270Z,42.10
2018-08-17T12:23:20.351Z,42.20
2018-08-17T12:26:05.115Z,41.70
2018-08-17T12:28:33.379Z,41.70
2018-08-17T12:31:01.396Z,41.70
2018-08-17T12:33:29.443Z,41.50
2018-08-17T12:35:57.408Z,41.30
2018-08-17T12:38:25.334Z,41.20
2018-08-17T12:40:55.577Z,41.10
2018-08-17T12:43:29.359Z,41.20
2018-08-17T12:45:57.363Z,40.90
2018-08-17T12:48:25.406Z,40.80
2018-08-17T12:50:53.348Z,40.70
2018-08-17T12:53:21.303Z,40.10
2018-08-17T12:55:49.267Z,39.70
2018-08-17T12:58:17.282Z,39.50
2018-08-17T13:00:45.317Z,39.40
2018-08-17T13:03:13.268Z,39.30
2018-08-17T13:05:41.216Z,39.20
2018-08-17T13:08:09.290Z,39.30
2018-08-17T13:10:37.632Z,39.20
2018-08-17T13:13:07.697Z,39.20
2018-08-17T13:15:36.031Z,39.10
2018-08-17T13:18:09.932Z,39.30
2018-08-17T13:20:38.124Z,39.20
2018-08-17T13:23:06.196Z,39.20
2018-08-17T13:25:34.484Z,39.00
2018-08-17T13:28:02.424Z,39.30
2018-08-17T13:30:30.354Z,39.30
2018-08-17T13:32:58.316Z,39.40
2018-08-17T13:35:26.279Z,39.00
2018-08-17T13:37:54.220Z,38.70
2018-08-17T13:40:22.194Z,39.30
2018-08-17T13:42:50.186Z,38.30
2018-08-17T13:45:18.124Z,38.00
2018-08-17T13:47:46.084Z,38.10
2018-08-17T13:50:14.107Z,38.10
2018-08-17T13:52:42.115Z,38.30
2018-08-17T13:55:10.146Z,38.50
2018-08-17T13:57:38.123Z,38.40
2018-08-17T14:00:07.831Z,38.40
2018-08-17T14:02:35.820Z,38.40
2018-08-17T14:05:04.455Z,38.60
2018-08-17T14:07:32.441Z,38.30
2018-08-17T14:10:00.436Z,38.40
2018-08-17T14:12:28.398Z,37.90
2018-08-17T14:14:56.355Z,37.90
2018-08-17T14:17:24.326Z,37.80
2018-08-17T14:19:52.294Z,38.00
2018-08-17T14:22:20.270Z,37.50
2018-08-17T14:24:48.204Z,37.50
2018-08-17T14:27:16.220Z,37.70
2018-08-17T14:29:44.172Z,37.80
2018-08-17T14:32:12.146Z,38.00
2018-08-17T14:34:40.099Z,38.10
2018-08-17T14:37:08.084Z,39.00
2018-08-17T14:39:36.057Z,39.10
2018-08-17T14:42:04.330Z,38.40
2018-08-17T14:44:32.483Z,38.00
2018-08-17T14:47:00.738Z,38.20
2018-08-17T14:49:28.958Z,38.20
2018-08-17T14:51:57.268Z,38.50
2018-08-17T14:54:25.338Z,38.60
2018-08-17T14:56:53.835Z,39.00
2018-08-17T14:59:22.013Z,40.10
2018-08-17T15:01:50.222Z,40.80
2018-08-17T15:04:18.460Z,41.30
2018-08-17T15:06:46.673Z,41.40
2018-08-17T15:09:15.331Z,41.80
2018-08-17T15:11:44.137Z,42.00
2018-08-17T15:14:14.124Z,42.10
2018-08-17T15:16:42.868Z,42.50
2018-08-17T15:19:11.135Z,42.60
2018-08-17T15:21:39.583Z,41.90
2018-08-17T15:24:07.642Z,41.80
2018-08-17T15:26:35.744Z,41.70
2018-08-17T15:29:03.689Z,41.40
2018-08-17T15:31:31.754Z,41.60
2018-08-17T15:33:59.691Z,41.80
2018-08-17T15:36:27.667Z,41.80
2018-08-17T15:38:55.688Z,41.90
2018-08-17T15:41:23.679Z,41.90
2018-08-17T15:43:51.612Z,41.70
2018-08-17T15:46:19.689Z,41.30
2018-08-17T15:48:54.642Z,41.60
2018-08-17T15:51:22.656Z,41.50
2018-08-17T15:53:50.893Z,41.80
2018-08-17T15:56:19.004Z,41.80
2018-08-17T15:58:47.025Z,41.70
2018-08-17T16:01:15.258Z,41.80
2018-08-17T16:03:43.157Z,41.80
2018-08-17T16:06:11.435Z,41.80
2018-08-17T16:08:42.555Z,42.00
2018-08-17T16:11:10.638Z,42.10
2018-08-17T16:13:38.634Z,42.00
2018-08-17T16:16:06.763Z,42.20
2018-08-17T16:18:35.035Z,42.30
2018-08-17T16:21:02.984Z,42.60
2018-08-17T16:23:30.941Z,42.60
2018-08-17T16:25:58.923Z,42.70
2018-08-17T16:28:26.872Z,42.70
2018-08-17T16:30:54.841Z,42.60
2018-08-17T16:33:22.871Z,42.80
2018-08-17T16:35:50.807Z,42.80
2018-08-17T16:38:18.760Z,42.80
2018-08-17T16:40:51.964Z,42.80
2018-08-17T16:43:21.593Z,42.90
2018-08-17T16:45:49.544Z,43.30
2018-08-17T16:48:17.531Z,43.60
2018-08-17T16:50:45.471Z,42.80
2018-08-17T16:53:13.488Z,42.90
2018-08-17T16:55:41.583Z,43.80
2018-08-17T16:58:09.593Z,46.00
2018-08-17T17:00:37.666Z,46.90
2018-08-17T17:03:05.813Z,47.10
2018-08-17T17:05:33.774Z,47.60
2018-08-17T17:08:01.796Z,47.90
2018-08-17T17:10:31.268Z,48.20
2018-08-17T17:12:59.252Z,48.50
2018-08-17T17:15:27.204Z,48.80
2018-08-17T17:18:03.534Z,49.20
2018-08-17T17:20:33.515Z,49.70
2018-08-17T17:23:01.589Z,50.00
2018-08-17T17:25:29.563Z,50.60
2018-08-17T17:27:57.607Z,51.00
2018-08-17T17:30:36.264Z,51.20
2018-08-17T17:33:04.428Z,52.20
2018-08-17T17:35:32.412Z,51.80
2018-08-17T17:38:00.349Z,51.90
2018-08-17T17:40:28.616Z,51.90
2018-08-17T17:42:56.625Z,51.90
2018-08-17T17:45:24.610Z,51.90
2018-08-17T17:47:52.550Z,52.20
2018-08-17T17:50:20.592Z,52.30
2018-08-17T17:52:48.623Z,52.60
2018-08-17T17:55:16.560Z,52.80
2018-08-17T17:57:48.806Z,52.60
2018-08-17T18:00:16.780Z,52.20
2018-08-17T18:02:47.070Z,51.90
2018-08-17T18:05:15.124Z,51.90
2018-08-17T18:07:47.120Z,51.90
2018-08-17T18:10:21.609Z,51.70
2018-08-17T18:12:49.831Z,51.60
2018-08-17T18:15:17.804Z,51.90
2018-08-17T18:17:45.934Z,51.60
2018-08-17T18:20:14.468Z,51.40
2018-08-17T18:22:42.526Z,51.30
2018-08-17T18:25:16.331Z,51.10
2018-08-17T18:27:44.367Z,50.60
2018-08-17T18:30:12.374Z,50.60
2018-08-17T18:32:40.372Z,50.60
2018-08-17T18:35:08.392Z,50.70
2018-08-17T18:37:36.575Z,50.90
2018-08-17T18:40:05.992Z,50.60
2018-08-17T18:42:33.983Z,50.60
2018-08-17T18:45:01.940Z,50.50
2018-08-17T18:47:30.233Z,50.60
2018-08-17T18:49:58.189Z,51.00
2018-08-17T18:52:26.135Z,50.90
2018-08-17T18:54:54.242Z,50.90
2018-08-17T18:57:22.229Z,51.20
2018-08-17T18:59:50.165Z,51.20
2018-08-17T19:02:18.185Z,51.00
2018-08-17T19:04:46.212Z,51.50
2018-08-17T19:07:14.215Z,51.10
2018-08-17T19:09:42.554Z,51.30
2018-08-17T19:12:10.525Z,51.80
2018-08-17T19:14:51.195Z,51.80
2018-08-17T19:17:24.693Z,51.80
2018-08-17T19:19:53.474Z,51.70
2018-08-17T19:22:21.766Z,51.80
2018-08-17T19:24:50.975Z,51.80
2018-08-17T19:27:31.261Z,51.80
2018-08-17T19:29:59.201Z,51.80
2018-08-17T19:32:27.149Z,52.10
2018-08-17T19:34:55.169Z,52.20
2018-08-17T19:37:23.134Z,52.10
2018-08-17T19:39:51.090Z,52.20
2018-08-17T19:42:19.197Z,53.00
2018-08-17T19:44:47.135Z,52.20
2018-08-17T19:47:15.088Z,52.60
2018-08-17T19:49:43.096Z,52.50
2018-08-17T19:52:11.036Z,53.00
2018-08-17T19:54:38.978Z,54.00
2018-08-17T19:57:06.941Z,54.30
2018-08-17T19:59:34.970Z,53.90
2018-08-17T20:02:02.903Z,53.90
2018-08-17T20:04:31.196Z,53.90
2018-08-17T20:06:59.635Z,53.90
2018-08-17T20:09:27.688Z,53.90
2018-08-17T20:11:55.695Z,53.80
2018-08-17T20:14:23.651Z,53.60
2018-08-17T20:16:51.655Z,54.20
2018-08-17T20:19:19.652Z,54.40
2018-08-17T20:21:47.635Z,54.60
2018-08-17T20:24:15.676Z,54.80
2018-08-17T20:26:44.007Z,54.80
2018-08-17T20:29:11.645Z,54.80
2018-08-17T20:31:41.417Z,55.00
2018-08-17T20:34:09.413Z,55.20
2018-08-17T20:36:37.351Z,55.50
2018-08-17T20:39:09.432Z,55.10
2018-08-17T20:41:37.498Z,55.10
2018-08-17T20:44:06.774Z,54.90
2018-08-17T20:46:35.046Z,55.00
2018-08-17T20:49:03.208Z,54.60
2018-08-17T20:51:31.675Z,54.70
2018-08-17T20:54:02.138Z,54.50
2018-08-17T20:56:30.356Z,54.60
2018-08-17T20:58:58.434Z,54.40
2018-08-17T21:01:26.470Z,54.80
2018-08-17T21:03:54.744Z,54.80
2018-08-17T21:06:23.116Z,54.80
2018-08-17T21:08:51.146Z,54.80
2018-08-17T21:11:19.709Z,55.10
2018-08-17T21:13:47.856Z,55.20
2018-08-17T21:16:16.285Z,55.40
2018-08-17T21:18:44.703Z,55.50
2018-08-17T21:21:12.660Z,55.20
2018-08-17T21:23:40.725Z,55.10
2018-08-17T21:26:08.707Z,55.40
2018-08-17T21:28:36.720Z,55.60
2018-08-17T21:31:04.688Z,55.90
2018-08-17T21:33:32.615Z,56.30
2018-08-17T21:36:01.000Z,56.60
2018-08-17T21:38:28.955Z,56.50
2018-08-17T21:40:56.909Z,56.40
2018-08-17T21:43:24.863Z,56.70
2018-08-17T21:45:57.377Z,57.20
2018-08-17T21:48:27.743Z,57.70
2018-08-17T21:50:55.903Z,57.90
2018-08-17T21:53:24.123Z,57.70
2018-08-17T21:55:52.218Z,57.50
2018-08-17T21:58:22.128Z,57.90
2018-08-17T22:00:50.183Z,58.30
2018-08-17T22:03:23.941Z,58.40
2018-08-17T22:05:51.923Z,58.70
2018-08-17T22:08:20.263Z,59.20
2018-08-17T22:10:48.220Z,59.30
2018-08-17T22:13:35.063Z,59.20
2018-08-17T22:16:11.468Z,58.80
2018-08-17T22:18:43.875Z,59.30
2018-08-17T22:21:12.395Z,59.80
2018-08-17T22:23:40.524Z,59.90
2018-08-17T22:26:08.612Z,60.00
2018-08-17T22:28:36.709Z,60.10
2018-08-17T22:31:04.949Z,60.40
2018-08-17T22:33:33.168Z,60.70
2018-08-17T22:36:01.260Z,60.40
2018-08-17T22:38:33.746Z,60.40
2018-08-17T22:41:01.869Z,60.90
2018-08-17T22:43:30.076Z,61.70
2018-08-17T22:45:58.157Z,63.10
2018-08-17T22:48:26.385Z,62.70
2018-08-17T22:50:54.362Z,62.70
2018-08-17T22:53:22.375Z,62.70
2018-08-17T22:55:50.324Z,62.70
2018-08-17T22:58:18.284Z,62.40
2018-08-17T23:00:46.895Z,62.40
2018-08-17T23:03:14.892Z,62.90
2018-08-17T23:05:42.850Z,63.10
2018-08-17T23:08:10.853Z,63.00
2018-08-17T23:10:38.808Z,63.00
2018-08-17T23:13:06.751Z,63.00
2018-08-17T23:15:34.707Z,62.80
2018-08-17T23:18:02.672Z,63.20
2018-08-17T23:20:34.797Z,63.50
2018-08-17T23:23:03.706Z,63.80
2018-08-17T23:25:31.874Z,64.30
2018-08-17T23:27:59.843Z,64.60
2018-08-17T23:30:33.282Z,64.50
2018-08-17T23:33:01.240Z,64.10
2018-08-17T23:35:29.215Z,64.30
2018-08-17T23:37:57.219Z,64.80
2018-08-17T23:40:25.221Z,65.10
2018-08-17T23:42:53.184Z,64.90
2018-08-17T23:45:22.137Z,65.30
2018-08-17T23:47:50.103Z,65.60
2018-08-17T23:50:18.056Z,65.60
2018-08-17T23:52:46.055Z,65.80
2018-08-17T23:55:15.604Z,65.90
2018-08-17T23:57:43.578Z,65.50
